createdAt,value
2022-08-05T00:01:20.966Z,25.70
2022-08-05T00:03:55.040Z,25.65
2022-08-05T00:06:33.419Z,25.56
2022-08-05T00:09:14.794Z,25.50
2022-08-05T00:11:56.213Z,25.52
2022-08-05T00:14:33.639Z,25.57
2022-08-05T00:17:06.344Z,25.51
2022-08-05T00:19:57.478Z,25.42
2022-08-05T00:22:36.770Z,25.39
2022-08-05T00:25:12.673Z,25.50
2022-08-05T00:27:45.679Z,25.35
2022-08-05T00:30:18.296Z,25.35
2022-08-05T00:33:01.947Z,25.35
2022-08-05T00:35:34.970Z,25.37
2022-08-05T00:38:28.710Z,25.30
2022-08-05T00:41:05.578Z,25.28
2022-08-05T00:43:49.943Z,25.23
2022-08-05T00:46:42.440Z,25.18
2022-08-05T00:49:19.126Z,25.32
2022-08-05T00:51:52.408Z,25.26
2022-08-05T00:54:27.930Z,25.13
2022-08-05T00:57:04.560Z,25.10
2022-08-05T00:59:44.179Z,25.15
2022-08-05T01:02:17.549Z,25.19
2022-08-05T01:04:50.322Z,25.13
2022-08-05T01:07:23.365Z,25.03
2022-08-05T01:10:09.160Z,25.11
2022-08-05T01:13:05.042Z,25.11
2022-08-05T01:15:48.027Z,25.05
2022-08-05T01:18:25.076Z,25.02
2022-08-05T01:21:08.973Z,25.02
2022-08-05T01:24:02.579Z,25.13
2022-08-05T01:26:59.038Z,24.99
2022-08-05T01:29:37.647Z,24.92
2022-08-05T01:32:18.428Z,24.94
2022-08-05T01:34:58.037Z,24.98
2022-08-05T01:37:38.267Z,25.06
2022-08-05T01:40:19.413Z,24.90
2022-08-05T01:43:03.767Z,24.88
2022-08-05T01:45:43.044Z,24.80
2022-08-05T01:48:18.329Z,24.80
2022-08-05T01:50:52.409Z,24.79
2022-08-05T01:53:57.582Z,24.77
2022-08-05T01:58:29.944Z,24.79
2022-08-05T01:59:16.104Z,24.82
2022-08-05T02:01:54.804Z,24.73
2022-08-05T02:04:30.900Z,24.72
2022-08-05T02:07:04.064Z,24.63
2022-08-05T02:09:39.603Z,24.66
2022-08-05T02:12:22.483Z,24.66
2022-08-05T02:15:06.388Z,24.68
2022-08-05T02:18:31.408Z,24.66
2022-08-05T02:20:50.508Z,24.62
2022-08-05T02:23:27.201Z,24.51
2022-08-05T02:26:03.832Z,24.49
2022-08-05T02:28:41.740Z,24.47
2022-08-05T02:31:24.912Z,24.44
2022-08-05T02:34:05.026Z,24.48
2022-08-05T02:36:43.527Z,24.51
2022-08-05T02:39:21.347Z,24.46
2022-08-05T02:41:58.224Z,24.34
2022-08-05T02:44:36.597Z,24.38
2022-08-05T02:47:14.064Z,24.40
2022-08-05T02:49:50.772Z,24.41
2022-08-05T02:52:29.415Z,24.44
2022-08-05T02:55:05.243Z,24.31
2022-08-05T02:58:10.788Z,24.27
2022-08-05T03:00:36.665Z,24.30
2022-08-05T03:03:14.257Z,24.37
2022-08-05T03:06:55.888Z,24.27
2022-08-05T03:08:44.969Z,24.22
2022-08-05T03:11:54.769Z,24.26
2022-08-05T03:14:13.390Z,24.35
2022-08-05T03:16:46.536Z,24.23
2022-08-05T03:19:34.134Z,24.23
2022-08-05T03:22:16.299Z,24.28
2022-08-05T03:24:52.340Z,24.23
2022-08-05T03:27:39.387Z,24.19
2022-08-05T03:30:18.970Z,24.21
2022-08-05T03:32:54.308Z,24.15
2022-08-05T03:35:28.380Z,24.17
2022-08-05T03:38:03.610Z,24.12
2022-08-05T03:40:36.403Z,24.06
2022-08-05T03:43:58.743Z,24.08
2022-08-05T03:46:08.266Z,24.09
2022-08-05T03:48:41.425Z,24.03
2022-08-05T03:52:38.945Z,23.97
2022-08-05T03:55:53.790Z,24.02
2022-08-05T03:57:18.260Z,23.97
2022-08-05T03:59:56.616Z,23.89
2022-08-05T04:02:37.777Z,23.87
2022-08-05T04:05:13.914Z,23.85
2022-08-05T04:07:58.161Z,23.82
2022-08-05T04:10:38.137Z,23.81
2022-08-05T04:13:11.568Z,23.83
2022-08-05T04:15:53.019Z,23.82
2022-08-05T04:18:38.769Z,23.72
2022-08-05T04:21:12.830Z,23.71
2022-08-05T04:24:09.049Z,23.69
2022-08-05T04:26:49.085Z,23.71
2022-08-05T04:29:21.961Z,23.68
2022-08-05T04:31:56.849Z,23.68
2022-08-05T04:34:32.945Z,23.53
2022-08-05T04:37:06.808Z,23.51
2022-08-05T04:39:40.114Z,23.50
2022-08-05T04:42:14.320Z,23.58
2022-08-05T04:44:47.151Z,23.54
2022-08-05T04:47:20.215Z,23.42
2022-08-05T04:50:02.403Z,23.33
2022-08-05T04:52:44.125Z,23.38
2022-08-05T04:55:17.616Z,23.42
2022-08-05T04:58:13.556Z,23.38
2022-08-05T05:00:46.462Z,23.27
2022-08-05T05:03:23.767Z,23.25
2022-08-05T05:06:40.090Z,23.28
2022-08-05T05:08:50.096Z,23.22
2022-08-05T05:11:23.772Z,23.11
2022-08-05T05:14:16.429Z,23.23
2022-08-05T05:16:50.525Z,23.24
2022-08-05T05:19:27.538Z,23.12
2022-08-05T05:22:24.514Z,23.09
2022-08-05T05:25:01.338Z,23.08
2022-08-05T05:27:53.945Z,23.10
2022-08-05T05:30:31.413Z,23.05
2022-08-05T05:33:15.851Z,23.02
2022-08-05T05:35:51.849Z,23.17
2022-08-05T05:38:27.259Z,23.37
2022-08-05T05:41:00.412Z,23.30
2022-08-05T05:43:57.549Z,23.34
2022-08-05T05:46:28.541Z,23.40
2022-08-05T05:49:06.453Z,23.33
2022-08-05T05:51:54.389Z,23.43
2022-08-05T05:54:35.483Z,23.37
2022-08-05T05:57:20.836Z,23.54
2022-08-05T05:59:53.748Z,23.42
2022-08-05T06:02:32.588Z,23.44
2022-08-05T06:05:16.719Z,23.53
2022-08-05T06:08:01.193Z,23.19
2022-08-05T06:10:37.512Z,22.94
2022-08-05T06:13:21.955Z,23.24
2022-08-05T06:16:29.542Z,23.31
2022-08-05T06:18:50.436Z,23.08
2022-08-05T06:21:35.739Z,22.98
2022-08-05T06:24:12.233Z,23.01
2022-08-05T06:26:52.061Z,22.71
2022-08-05T06:29:46.968Z,23.10
2022-08-05T06:32:26.245Z,23.00
2022-08-05T06:35:05.870Z,22.81
2022-08-05T06:37:58.354Z,22.93
2022-08-05T06:40:32.597Z,23.33
2022-08-05T06:43:05.706Z,22.81
2022-08-05T06:46:06.945Z,22.68
2022-08-05T06:48:55.689Z,22.86
2022-08-05T06:51:33.279Z,22.75
2022-08-05T06:54:06.164Z,23.15
2022-08-05T06:56:40.756Z,23.12
2022-08-05T06:59:27.891Z,22.84
2022-08-05T07:02:00.558Z,23.18
2022-08-05T07:04:33.230Z,23.11
2022-08-05T07:07:08.059Z,23.13
2022-08-05T07:09:40.959Z,23.39
2022-08-05T07:12:29.949Z,23.50
2022-08-05T07:15:34.634Z,23.31
2022-08-05T07:18:20.381Z,23.52
2022-08-05T07:21:04.736Z,23.08
2022-08-05T07:23:49.136Z,23.30
2022-08-05T07:26:25.592Z,23.58
2022-08-05T07:28:59.746Z,22.98
2022-08-05T07:31:40.856Z,23.27
2022-08-05T07:34:28.721Z,23.37
2022-08-05T07:40:26.887Z,23.63
2022-08-05T07:42:34.046Z,23.76
2022-08-05T07:45:10.262Z,23.82
2022-08-05T07:47:43.883Z,23.89
2022-08-05T07:50:16.847Z,23.93
2022-08-05T07:52:50.324Z,24.00
2022-08-05T07:55:44.502Z,24.03
2022-08-05T07:58:59.013Z,24.02
2022-08-05T08:01:12.109Z,23.99
2022-08-05T08:03:45.427Z,24.11
2022-08-05T08:06:24.087Z,24.12
2022-08-05T08:09:01.109Z,24.09
2022-08-05T08:11:48.188Z,24.12
2022-08-05T08:14:27.838Z,24.10
2022-08-05T08:17:00.503Z,24.08
2022-08-05T08:20:23.478Z,24.12
2022-08-05T08:22:27.581Z,24.12
2022-08-05T08:25:03.038Z,24.08
2022-08-05T08:27:45.187Z,24.06
2022-08-05T08:30:32.483Z,24.03
2022-08-05T08:33:13.851Z,24.02
2022-08-05T08:35:52.379Z,23.96
2022-08-05T08:38:32.330Z,23.92
2022-08-05T08:41:13.955Z,23.90
2022-08-05T08:45:18.095Z,23.88
2022-08-05T08:46:42.496Z,23.86
2022-08-05T08:50:07.615Z,23.86
2022-08-05T08:52:14.238Z,23.79
2022-08-05T08:54:48.154Z,23.80
2022-08-05T08:57:22.684Z,23.74
2022-08-05T08:59:59.034Z,23.69
2022-08-05T09:02:31.809Z,23.63
2022-08-05T09:05:16.623Z,23.61
2022-08-05T09:07:57.699Z,23.70
2022-08-05T09:10:31.943Z,23.67
2022-08-05T09:13:05.448Z,23.63
2022-08-05T09:15:42.338Z,23.59
2022-08-05T09:18:16.356Z,23.65
2022-08-05T09:20:51.291Z,23.62
2022-08-05T09:23:27.236Z,23.57
2022-08-05T09:26:09.491Z,23.65
2022-08-05T09:28:42.241Z,23.56
2022-08-05T09:31:22.969Z,23.56
2022-08-05T09:34:10.472Z,23.64
2022-08-05T09:36:56.119Z,23.63
2022-08-05T09:39:45.234Z,23.61
2022-08-05T09:42:24.057Z,23.59
2022-08-05T09:46:02.644Z,23.56
2022-08-05T09:48:20.398Z,23.61
2022-08-05T09:50:56.404Z,23.61
2022-08-05T09:53:53.904Z,23.59
2022-08-05T09:56:28.168Z,23.61
2022-08-05T09:59:03.205Z,23.67
2022-08-05T10:01:40.881Z,23.66
2022-08-05T10:04:28.665Z,23.66
2022-08-05T10:07:20.932Z,23.73
2022-08-05T10:10:04.388Z,23.74
2022-08-05T10:12:50.397Z,23.77
2022-08-05T10:15:26.217Z,23.81
2022-08-05T10:18:22.536Z,23.83
2022-08-05T10:20:59.195Z,23.83
2022-08-05T10:23:59.645Z,23.87
2022-08-05T10:26:33.925Z,23.90
2022-08-05T10:29:08.197Z,23.96
2022-08-05T10:32:51.665Z,24.04
2022-08-05T10:34:36.078Z,24.02
2022-08-05T10:37:15.049Z,24.18
2022-08-05T10:40:03.196Z,24.23
2022-08-05T10:42:38.543Z,24.34
2022-08-05T10:45:21.206Z,24.44
2022-08-05T10:48:31.127Z,24.55
2022-08-05T10:51:04.516Z,24.69
2022-08-05T10:53:42.550Z,24.75
2022-08-05T10:56:25.237Z,24.91
2022-08-05T10:59:12.624Z,25.00
2022-08-05T11:02:14.141Z,25.00
2022-08-05T11:04:49.089Z,25.03
2022-08-05T11:07:33.157Z,25.08
2022-08-05T11:10:27.140Z,25.22
2022-08-05T11:13:01.693Z,25.29
2022-08-05T11:16:00.642Z,25.29
2022-08-05T11:18:34.635Z,25.26
2022-08-05T11:21:48.851Z,25.29
2022-08-05T11:24:30.040Z,25.37
2022-08-05T11:27:51.025Z,25.48
2022-08-05T11:30:25.125Z,25.57
2022-08-05T11:33:26.098Z,25.60
2022-08-05T11:36:34.328Z,25.66
2022-08-05T11:39:13.627Z,25.77
2022-08-05T11:42:01.581Z,25.89
2022-08-05T11:44:53.855Z,26.03
2022-08-05T11:47:48.216Z,26.14
2022-08-05T11:50:21.253Z,26.34
2022-08-05T11:52:57.559Z,26.56
2022-08-05T11:55:32.047Z,26.59
2022-08-05T11:58:12.035Z,26.80
2022-08-05T12:00:47.059Z,26.81
2022-08-05T12:03:31.440Z,26.95
2022-08-05T12:06:10.222Z,26.97
2022-08-05T12:08:50.870Z,27.15
2022-08-05T12:11:28.426Z,27.17
2022-08-05T12:14:13.463Z,27.21
2022-08-05T12:16:48.187Z,27.32
2022-08-05T12:20:26.354Z,27.43
2022-08-05T12:22:17.942Z,27.44
2022-08-05T12:24:53.853Z,27.51
2022-08-05T12:27:32.924Z,27.66
2022-08-05T12:30:08.360Z,27.61
2022-08-05T12:32:50.671Z,27.84
2022-08-05T12:35:24.577Z,27.93
2022-08-05T12:38:10.304Z,27.96
2022-08-05T12:40:44.306Z,28.03
2022-08-05T12:43:20.944Z,28.04
2022-08-05T12:45:55.289Z,28.07
2022-08-05T12:48:39.385Z,28.11
2022-08-05T12:52:10.672Z,28.12
2022-08-05T12:54:16.849Z,28.22
2022-08-05T12:56:59.197Z,28.35
2022-08-05T12:59:46.595Z,28.45
2022-08-05T13:02:30.557Z,28.21
2022-08-05T13:05:07.977Z,28.22
2022-08-05T13:07:59.110Z,28.33
2022-08-05T13:10:33.930Z,28.27
2022-08-05T13:13:08.845Z,28.32
2022-08-05T13:15:50.917Z,28.32
2022-08-05T13:18:24.149Z,28.44
2022-08-05T13:20:58.302Z,28.41
2022-08-05T13:23:30.977Z,28.26
2022-08-05T13:26:05.598Z,28.29
2022-08-05T13:28:44.038Z,28.25
2022-08-05T13:31:17.041Z,28.33
2022-08-05T13:34:24.870Z,28.30
2022-08-05T13:37:00.430Z,28.23
2022-08-05T13:40:15.774Z,28.21
2022-08-05T13:42:26.822Z,28.12
2022-08-05T13:44:59.560Z,28.23
2022-08-05T13:47:35.579Z,28.27
2022-08-05T13:50:13.532Z,28.28
2022-08-05T13:52:50.409Z,28.27
2022-08-05T13:55:41.896Z,28.28
2022-08-05T13:58:30.254Z,28.40
2022-08-05T14:01:03.350Z,28.38
2022-08-05T14:03:36.763Z,28.58
2022-08-05T14:06:25.785Z,28.67
2022-08-05T14:09:01.351Z,27.91
2022-08-05T14:11:35.013Z,27.96
2022-08-05T14:14:33.602Z,27.80
2022-08-05T14:17:06.731Z,28.01
2022-08-05T14:19:55.198Z,27.98
2022-08-05T14:22:30.156Z,27.77
2022-08-05T14:25:06.373Z,28.05
2022-08-05T14:27:54.804Z,27.74
2022-08-05T14:30:28.361Z,27.95
2022-08-05T14:33:03.477Z,28.13
2022-08-05T14:35:50.066Z,28.22
2022-08-05T14:38:32.655Z,28.37
2022-08-05T14:41:09.810Z,28.56
2022-08-05T14:44:01.615Z,28.24
2022-08-05T14:46:36.002Z,28.46
2022-08-05T14:49:08.902Z,28.27
2022-08-05T14:51:42.973Z,28.05
2022-08-05T14:54:27.746Z,28.11
2022-08-05T14:57:05.412Z,28.12
2022-08-05T14:59:42.563Z,27.94
2022-08-05T15:02:16.064Z,28.40
2022-08-05T15:04:49.866Z,27.45
2022-08-05T15:08:11.201Z,27.54
2022-08-05T15:10:15.486Z,28.01
2022-08-05T15:13:00.327Z,27.83
2022-08-05T15:15:54.572Z,27.94
2022-08-05T15:18:27.178Z,28.15
2022-08-05T15:21:07.479Z,28.00
2022-08-05T15:23:40.699Z,27.43
2022-08-05T15:26:13.536Z,27.87
2022-08-05T15:28:52.075Z,27.78
2022-08-05T15:31:24.961Z,27.63
2022-08-05T15:34:32.470Z,28.12
2022-08-05T15:37:06.303Z,28.30
2022-08-05T15:40:59.024Z,28.06
2022-08-05T15:42:55.195Z,27.96
2022-08-05T15:45:38.314Z,28.11
2022-08-05T15:48:14.345Z,27.88
2022-08-05T15:50:48.394Z,28.06
2022-08-05T15:53:21.389Z,27.95
2022-08-05T15:56:02.818Z,27.86
2022-08-05T15:58:37.259Z,27.45
2022-08-05T16:01:17.020Z,27.75
2022-08-05T16:03:51.056Z,27.65
2022-08-05T16:06:24.516Z,27.45
2022-08-05T16:08:58.020Z,26.97
2022-08-05T16:11:42.635Z,27.36
2022-08-05T16:14:17.529Z,27.70
2022-08-05T16:16:51.922Z,27.45
2022-08-05T16:20:05.323Z,27.47
2022-08-05T16:22:19.317Z,27.15
2022-08-05T16:25:00.407Z,27.10
2022-08-05T16:28:00.413Z,27.09
2022-08-05T16:30:32.435Z,26.94
2022-08-05T16:33:06.587Z,27.12
2022-08-05T16:35:43.180Z,27.34
2022-08-05T16:38:25.649Z,27.26
2022-08-05T16:41:02.642Z,27.22
2022-08-05T16:43:56.404Z,26.98
2022-08-05T16:46:29.352Z,27.23
2022-08-05T16:49:03.662Z,27.27
2022-08-05T16:51:42.699Z,26.73
2022-08-05T16:54:30.331Z,26.70
2022-08-05T16:57:14.891Z,25.92
2022-08-05T17:00:02.743Z,26.31
2022-08-05T17:02:38.827Z,26.20
2022-08-05T17:05:13.337Z,26.23
2022-08-05T17:07:54.671Z,26.38
2022-08-05T17:10:30.474Z,26.30
2022-08-05T17:13:03.643Z,26.09
2022-08-05T17:15:48.708Z,25.43
2022-08-05T17:18:23.760Z,25.69
2022-08-05T17:20:57.983Z,25.31
2022-08-05T17:24:04.899Z,25.57
2022-08-05T17:26:23.922Z,25.27
2022-08-05T17:28:57.141Z,25.10
2022-08-05T17:31:57.229Z,24.44
2022-08-05T17:34:29.521Z,24.87
2022-08-05T17:37:12.821Z,24.73
2022-08-05T17:39:57.503Z,24.47
2022-08-05T17:42:33.088Z,24.56
2022-08-05T17:45:17.680Z,24.78
2022-08-05T17:47:55.775Z,24.69
2022-08-05T17:50:30.830Z,24.46
2022-08-05T17:53:08.351Z,24.35
2022-08-05T17:55:41.701Z,24.02
2022-08-05T17:58:16.440Z,23.96
2022-08-05T18:00:54.226Z,24.04
2022-08-05T18:06:29.346Z,24.08
2022-08-05T18:09:05.535Z,23.90
2022-08-05T18:11:52.147Z,23.62
2022-08-05T18:14:25.719Z,23.81
2022-08-05T18:16:58.492Z,23.87
2022-08-05T18:19:33.279Z,23.82
2022-08-05T18:22:07.366Z,23.77
2022-08-05T18:24:42.319Z,23.75
2022-08-05T18:27:18.620Z,23.53
2022-08-05T18:29:54.527Z,23.52
2022-08-05T18:32:27.644Z,22.98
2022-08-05T18:35:01.338Z,23.31
2022-08-05T18:37:39.940Z,23.37
2022-08-05T18:40:34.636Z,23.40
2022-08-05T18:43:09.136Z,23.54
2022-08-05T18:45:49.548Z,23.53
2022-08-05T18:48:31.477Z,23.58
2022-08-05T18:52:04.147Z,23.42
2022-08-05T18:54:16.190Z,23.43
2022-08-05T18:56:51.151Z,23.39
2022-08-05T18:59:43.238Z,23.35
2022-08-05T19:02:26.592Z,23.38
2022-08-05T19:06:11.671Z,23.33
2022-08-05T19:07:56.180Z,23.20
2022-08-05T19:10:31.465Z,23.07
2022-08-05T19:13:06.107Z,23.26
2022-08-05T19:15:59.222Z,23.22
2022-08-05T19:18:35.956Z,23.14
2022-08-05T19:21:12.459Z,23.04
2022-08-05T19:24:06.758Z,23.00
2022-08-05T19:26:43.848Z,22.91
2022-08-05T19:29:35.992Z,22.95
2022-08-05T19:32:11.401Z,22.87
2022-08-05T19:34:54.869Z,22.88
2022-08-05T19:37:34.996Z,22.77
2022-08-05T19:40:24.176Z,22.89
2022-08-05T19:43:04.719Z,22.93
2022-08-05T19:45:39.124Z,22.83
2022-08-05T19:48:27.295Z,22.85
2022-08-05T19:50:59.924Z,22.77
2022-08-05T19:54:05.012Z,22.72
2022-08-05T19:56:29.898Z,22.68
2022-08-05T19:59:21.414Z,22.63
2022-08-05T20:02:02.511Z,22.64
2022-08-05T20:04:35.711Z,22.57
2022-08-05T20:07:13.069Z,22.60
2022-08-05T20:09:54.350Z,22.62
2022-08-05T20:12:28.316Z,22.56
2022-08-05T20:15:01.194Z,22.49
2022-08-05T20:17:35.365Z,22.49
2022-08-05T20:20:11.110Z,22.49
2022-08-05T20:22:44.165Z,22.50
2022-08-05T20:25:19.839Z,22.44
2022-08-05T20:27:56.149Z,22.38
2022-08-05T20:30:31.057Z,22.30
2022-08-05T20:33:05.193Z,22.22
2022-08-05T20:35:40.453Z,22.20
2022-08-05T20:38:26.664Z,22.27
2022-08-05T20:41:00.604Z,22.22
2022-08-05T20:43:58.789Z,22.17
2022-08-05T20:46:30.509Z,22.13
2022-08-05T20:49:06.303Z,22.00
2022-08-05T20:51:40.525Z,22.02
2022-08-05T20:54:14.163Z,22.05
2022-08-05T20:56:47.178Z,21.96
2022-08-05T20:59:27.094Z,21.98
2022-08-05T21:02:18.092Z,21.91
2022-08-05T21:04:52.356Z,21.83
2022-08-05T21:07:25.359Z,21.86
2022-08-05T21:10:18.203Z,21.75
2022-08-05T21:12:58.049Z,21.67
2022-08-05T21:15:46.136Z,21.69
2022-08-05T21:18:24.310Z,21.69
2022-08-05T21:21:00.372Z,21.64
2022-08-05T21:23:37.302Z,21.60
2022-08-05T21:26:14.405Z,21.61
2022-08-05T21:28:51.002Z,21.50
2022-08-05T21:31:23.960Z,21.53
2022-08-05T21:33:56.988Z,21.49
2022-08-05T21:36:33.521Z,21.37
2022-08-05T21:39:07.972Z,21.40
2022-08-05T21:41:40.760Z,21.35
2022-08-05T21:44:13.485Z,21.31
2022-08-05T21:46:48.641Z,21.33
2022-08-05T21:50:00.472Z,21.29
2022-08-05T21:52:28.461Z,21.15
2022-08-05T21:55:06.516Z,21.16
2022-08-05T21:57:42.401Z,21.11
2022-08-05T22:00:16.389Z,21.09
2022-08-05T22:02:49.142Z,21.06
2022-08-05T22:05:22.329Z,21.04
2022-08-05T22:08:02.410Z,21.01
2022-08-05T22:10:35.452Z,20.91
2022-08-05T22:14:06.358Z,20.89
2022-08-05T22:16:11.436Z,20.88
2022-08-05T22:18:53.713Z,20.89
2022-08-05T22:21:31.260Z,20.84
2022-08-05T22:24:39.463Z,20.74
2022-08-05T22:28:09.216Z,20.72
2022-08-05T22:30:55.391Z,20.74
2022-08-05T22:33:56.890Z,20.58
2022-08-05T22:36:23.833Z,20.59
2022-08-05T22:38:57.275Z,20.55
2022-08-05T22:42:11.511Z,20.55
2022-08-05T22:44:36.911Z,20.51
2022-08-05T22:47:09.697Z,20.45
2022-08-05T22:50:18.033Z,20.41
2022-08-05T22:52:38.151Z,20.38
2022-08-05T22:55:19.512Z,20.36
2022-08-05T22:57:55.583Z,20.30
2022-08-05T23:00:31.365Z,20.31
2022-08-05T23:03:04.484Z,20.30
2022-08-05T23:05:37.504Z,20.28
2022-08-05T23:08:12.346Z,20.25
2022-08-05T23:10:47.900Z,20.19
2022-08-05T23:13:23.169Z,20.23
2022-08-05T23:15:56.162Z,20.21
2022-08-05T23:18:28.870Z,20.15
2022-08-05T23:21:01.547Z,20.09
2022-08-05T23:23:35.899Z,20.01
2022-08-05T23:26:08.615Z,20.04
2022-08-05T23:28:43.043Z,20.07
2022-08-05T23:31:17.933Z,20.03
2022-08-05T23:34:03.078Z,20.00
2022-08-05T23:36:44.201Z,19.97
2022-08-05T23:39:32.268Z,19.93
2022-08-05T23:42:14.463Z,19.92
2022-08-05T23:44:54.305Z,19.90
2022-08-05T23:47:27.477Z,19.85
2022-08-05T23:50:09.632Z,19.88
2022-08-05T23:52:50.057Z,19.83
2022-08-05T23:55:30.866Z,19.80
2022-08-05T23:58:04.034Z,19.74
